Time;durP1;ratioP1;P1;durP2;ratioP2;P2;SDS_P1;SDS_P2;PMS_P1;PMS_P2;Temp;Humidity;BMP_temperature;BMP_pressure;BME280_temperature;BME280_humidity;BME280_pressure;Samples;Min_cycle;Max_cycle;Signal;HPM_P1;HPM_P2
2021/12/08 00:01:23;;;;;;;11.50;6.30;;;;;;;;;;4914791;28;99637;-70
2021/12/08 00:03:50;;;;;;;8.38;7.30;;;;;;;;;;4913564;28;100093;-70
2021/12/08 00:06:16;;;;;;;12.20;7.13;;;;;;;;;;4914099;28;98417;-71
2021/12/08 00:08:48;;;;;;;11.93;6.88;;;;;;;;;;4913417;28;99583;-71
2021/12/08 00:14:00;;;;;;;11.00;6.25;;;;;;;;;;4914012;28;98416;-71
2021/12/08 00:16:27;;;;;;;10.25;6.85;;;;;;;;;;4914142;28;99708;-70
2021/12/08 00:18:57;;;;;;;6.72;4.75;;;;;;;;;;4915354;28;99996;-71
2021/12/08 00:21:26;;;;;;;13.55;5.35;;;;;;;;;;4920679;28;98370;-71
2021/12/08 00:23:53;;;;;;;14.00;5.63;;;;;;;;;;4917000;28;99709;-71
2021/12/08 00:26:19;;;;;;;7.75;5.15;;;;;;;;;;4917863;28;98470;-71
2021/12/08 00:28:46;;;;;;;6.65;4.97;;;;;;;;;;4917367;28;98666;-71
2021/12/08 00:31:12;;;;;;;11.00;5.57;;;;;;;;;;4916910;28;99837;-71
2021/12/08 00:33:38;;;;;;;9.35;5.45;;;;;;;;;;4916349;28;99115;-71
2021/12/08 00:36:09;;;;;;;9.07;5.47;;;;;;;;;;4917379;28;100185;-71
2021/12/08 00:38:35;;;;;;;11.27;6.10;;;;;;;;;;4916822;28;99085;-71
2021/12/08 00:41:01;;;;;;;9.00;5.25;;;;;;;;;;4916952;28;98476;-71
2021/12/08 00:43:28;;;;;;;8.85;5.80;;;;;;;;;;4919727;28;99024;-71
2021/12/08 00:45:55;;;;;;;8.32;5.80;;;;;;;;;;4900178;28;98446;-71
2021/12/08 00:48:21;;;;;;;12.45;6.30;;;;;;;;;;4916820;28;99334;-71
2021/12/08 00:50:49;;;;;;;5.97;4.90;;;;;;;;;;4917297;28;98766;-70
2021/12/08 00:53:16;;;;;;;8.10;6.18;;;;;;;;;;4916938;28;98440;-71
2021/12/08 00:55:42;;;;;;;10.05;5.82;;;;;;;;;;4917103;28;99111;-71
2021/12/08 00:58:08;;;;;;;9.50;6.03;;;;;;;;;;4915915;28;100525;-71
2021/12/08 01:00:37;;;;;;;10.20;6.32;;;;;;;;;;4916907;28;99271;-71
2021/12/08 01:03:04;;;;;;;10.77;5.97;;;;;;;;;;4916860;28;99521;-70
2021/12/08 01:05:34;;;;;;;10.38;6.90;;;;;;;;;;4902483;28;100538;-71
2021/12/08 01:08:00;;;;;;;10.38;6.50;;;;;;;;;;4916784;28;99911;-71
2021/12/08 01:10:28;;;;;;;8.30;7.13;;;;;;;;;;4916254;28;99684;-70
2021/12/08 01:13:03;;;;;;;9.90;6.55;;;;;;;;;;4916577;28;98376;-71
2021/12/08 01:15:30;;;;;;;11.48;7.28;;;;;;;;;;4914150;28;99648;-71
2021/12/08 01:17:56;;;;;;;10.77;7.18;;;;;;;;;;4916225;28;99896;-70
2021/12/08 01:20:23;;;;;;;10.40;7.70;;;;;;;;;;4916617;28;98464;-70
2021/12/08 01:22:49;;;;;;;8.95;7.53;;;;;;;;;;4916067;28;99573;-70
2021/12/08 01:25:16;;;;;;;9.00;7.35;;;;;;;;;;4916100;28;99620;-70
2021/12/08 01:27:42;;;;;;;11.65;6.88;;;;;;;;;;4919344;28;98448;-71
2021/12/08 01:30:10;;;;;;;10.15;7.72;;;;;;;;;;4915068;28;99550;-70
2021/12/08 01:32:36;;;;;;;9.10;8.10;;;;;;;;;;4916470;28;98222;-70
2021/12/08 01:35:04;;;;;;;12.32;7.43;;;;;;;;;;4916600;28;99456;-71
2021/12/08 01:37:30;;;;;;;11.73;7.95;;;;;;;;;;4915900;28;99582;-70
2021/12/08 01:39:57;;;;;;;8.85;8.02;;;;;;;;;;4916771;28;97659;-70
2021/12/08 01:42:29;;;;;;;12.45;7.88;;;;;;;;;;4915874;28;98904;-70
2021/12/08 01:47:41;;;;;;;11.75;8.25;;;;;;;;;;4918914;28;99043;-71
2021/12/08 01:50:08;;;;;;;13.80;7.93;;;;;;;;;;4915734;28;99871;-70
2021/12/08 01:52:35;;;;;;;12.98;8.55;;;;;;;;;;4916029;28;98460;-71
2021/12/08 01:55:03;;;;;;;12.68;8.63;;;;;;;;;;4915629;28;99402;-70
2021/12/08 01:57:30;;;;;;;9.38;7.60;;;;;;;;;;4915503;28;100004;-70
2021/12/08 01:59:56;;;;;;;8.55;7.72;;;;;;;;;;4916093;28;98352;-71
2021/12/08 02:02:23;;;;;;;10.98;8.70;;;;;;;;;;4914863;28;102270;-70
2021/12/08 02:04:49;;;;;;;16.38;9.63;;;;;;;;;;4916094;28;98995;-71
2021/12/08 02:07:15;;;;;;;15.27;8.52;;;;;;;;;;4915655;28;98440;-71
2021/12/08 02:09:43;;;;;;;16.50;9.38;;;;;;;;;;4918439;28;99467;-70
2021/12/08 02:12:09;;;;;;;15.38;9.93;;;;;;;;;;4915207;28;99224;-70
2021/12/08 02:14:36;;;;;;;10.93;8.10;;;;;;;;;;4914128;28;101486;-70
2021/12/08 02:17:03;;;;;;;9.65;8.73;;;;;;;;;;4915312;28;99930;-71
2021/12/08 02:19:29;;;;;;;11.30;9.15;;;;;;;;;;4915673;28;98340;-70
2021/12/08 02:21:56;;;;;;;12.32;9.45;;;;;;;;;;4915660;28;99647;-71
2021/12/08 02:24:22;;;;;;;11.30;9.35;;;;;;;;;;4914759;28;99568;-71
2021/12/08 02:26:50;;;;;;;11.38;8.57;;;;;;;;;;4903973;28;98830;-71
2021/12/08 02:29:23;;;;;;;9.98;8.32;;;;;;;;;;4896871;28;98787;-70
2021/12/08 02:31:58;;;;;;;15.98;8.52;;;;;;;;;;4899212;28;99841;-70
2021/12/08 02:48:10;;;;;;;14.48;6.65;;;;;;;;;;4894862;28;98400;-71
2021/12/08 02:50:37;;;;;;;10.93;6.15;;;;;;;;;;4895965;28;98882;-71
2021/12/08 02:53:04;;;;;;;10.48;6.35;;;;;;;;;;4895617;28;99707;-70
2021/12/08 02:55:31;;;;;;;11.48;6.30;;;;;;;;;;4899140;28;97686;-70
2021/12/08 02:58:00;;;;;;;9.10;6.57;;;;;;;;;;4894334;28;101830;-70
2021/12/08 03:00:28;;;;;;;10.43;5.80;;;;;;;;;;4896131;28;98421;-70
2021/12/08 03:02:56;;;;;;;9.35;5.50;;;;;;;;;;4895601;28;99386;-71
2021/12/08 03:05:23;;;;;;;8.90;5.50;;;;;;;;;;4895371;28;99833;-71
2021/12/08 03:07:50;;;;;;;8.52;5.70;;;;;;;;;;4894524;28;98458;-71
2021/12/08 03:10:18;;;;;;;9.38;5.50;;;;;;;;;;4895590;28;99894;-70
2021/12/08 03:12:44;;;;;;;9.23;5.82;;;;;;;;;;4895414;28;99110;-70
2021/12/08 03:15:12;;;;;;;16.98;6.03;;;;;;;;;;4895389;28;98551;-70
2021/12/08 03:17:39;;;;;;;12.80;5.68;;;;;;;;;;4898641;28;99258;-70
2021/12/08 03:20:08;;;;;;;11.40;5.32;;;;;;;;;;4895976;28;99611;-70
2021/12/08 03:22:39;;;;;;;7.75;5.03;;;;;;;;;;4895340;28;98840;-70
2021/12/08 03:25:08;;;;;;;16.60;6.37;;;;;;;;;;4895156;28;99759;-70
2021/12/08 03:27:39;;;;;;;14.57;5.60;;;;;;;;;;4895112;28;99380;-70
2021/12/08 03:30:16;;;;;;;8.70;5.15;;;;;;;;;;4895435;28;99705;-70
2021/12/08 03:32:44;;;;;;;8.88;5.30;;;;;;;;;;4895086;28;100172;-70
2021/12/08 03:35:14;;;;;;;12.07;5.32;;;;;;;;;;4894872;28;98414;-71
2021/12/08 03:37:42;;;;;;;9.63;5.60;;;;;;;;;;4895489;28;99731;-71
2021/12/08 03:40:29;;;;;;;9.80;5.55;;;;;;;;;;4898359;28;99646;-70
2021/12/08 03:42:57;;;;;;;9.23;5.07;;;;;;;;;;4895367;28;98833;-70
2021/12/08 03:45:34;;;;;;;7.40;4.57;;;;;;;;;;4895384;28;98941;-71
2021/12/08 03:48:04;;;;;;;9.77;5.40;;;;;;;;;;4895227;28;98503;-70
2021/12/08 03:50:33;;;;;;;12.02;5.10;;;;;;;;;;4895220;28;99148;-70
2021/12/08 03:53:00;;;;;;;9.05;5.18;;;;;;;;;;4895038;28;100493;-70
2021/12/08 03:55:27;;;;;;;13.93;5.32;;;;;;;;;;4898597;28;98274;-70
2021/12/08 03:57:53;;;;;;;12.25;5.10;;;;;;;;;;4898509;28;99548;-70
2021/12/08 04:00:21;;;;;;;9.00;4.95;;;;;;;;;;4901212;28;99653;-70
2021/12/08 04:02:48;;;;;;;12.55;5.35;;;;;;;;;;4881351;28;101572;-70
2021/12/08 04:05:19;;;;;;;11.13;5.10;;;;;;;;;;4881315;28;99625;-70
2021/12/08 04:07:47;;;;;;;9.90;4.60;;;;;;;;;;4898868;28;98455;-70
2021/12/08 04:10:18;;;;;;;5.78;5.07;;;;;;;;;;4899099;28;99522;-70
2021/12/08 04:12:47;;;;;;;10.65;4.97;;;;;;;;;;4897631;28;99737;-70
2021/12/08 04:15:15;;;;;;;10.55;4.68;;;;;;;;;;4898171;28;99016;-70
2021/12/08 04:17:43;;;;;;;10.95;4.68;;;;;;;;;;4897936;28;99454;-70
2021/12/08 04:20:14;;;;;;;8.43;5.30;;;;;;;;;;4897716;28;100542;-70
2021/12/08 04:22:43;;;;;;;11.18;4.57;;;;;;;;;;4901514;28;98415;-70
2021/12/08 04:25:12;;;;;;;12.40;5.05;;;;;;;;;;4897300;28;99771;-70
2021/12/08 04:27:40;;;;;;;10.07;4.72;;;;;;;;;;4898169;28;98419;-70
2021/12/08 04:30:13;;;;;;;10.65;3.95;;;;;;;;;;4898116;28;99775;-70
2021/12/08 04:32:39;;;;;;;11.07;4.38;;;;;;;;;;4897564;28;99864;-70
2021/12/08 04:35:09;;;;;;;9.98;4.32;;;;;;;;;;4898634;28;97620;-70
2021/12/08 04:37:37;;;;;;;9.55;4.15;;;;;;;;;;4897743;28;99155;-71
2021/12/08 04:40:22;;;;;;;8.85;4.25;;;;;;;;;;4897788;28;99874;-70
2021/12/08 04:43:29;;;;;;;9.52;3.85;;;;;;;;;;4897380;28;99219;-70
2021/12/08 04:45:58;;;;;;;8.35;3.95;;;;;;;;;;4898481;28;100069;-70
2021/12/08 04:51:17;;;;;;;7.90;3.78;;;;;;;;;;4897502;28;99809;-70
2021/12/08 05:09:53;;;;;;;8.75;3.15;;;;;;;;;;4899903;28;100219;-70
2021/12/08 05:12:22;;;;;;;9.55;3.50;;;;;;;;;;4897611;28;100215;-70
2021/12/08 05:14:53;;;;;;;6.28;3.15;;;;;;;;;;4896361;28;99610;-70
2021/12/08 05:17:25;;;;;;;10.40;3.60;;;;;;;;;;4897676;28;98235;-70
2021/12/08 05:19:55;;;;;;;8.45;3.30;;;;;;;;;;4897240;28;99928;-70
2021/12/08 05:22:25;;;;;;;7.40;2.80;;;;;;;;;;4896914;28;99569;-70
2021/12/08 05:24:53;;;;;;;4.57;2.65;;;;;;;;;;4897463;28;98508;-70
2021/12/08 05:27:21;;;;;;;7.57;2.70;;;;;;;;;;4897593;28;99541;-71
2021/12/08 05:29:49;;;;;;;8.63;2.67;;;;;;;;;;4880194;28;99233;-70
2021/12/08 05:32:16;;;;;;;7.22;2.75;;;;;;;;;;4900369;28;98399;-70
2021/12/08 05:34:43;;;;;;;7.75;2.72;;;;;;;;;;4896362;28;100492;-70
2021/12/08 05:37:11;;;;;;;9.65;2.80;;;;;;;;;;4897231;28;98511;-70
2021/12/08 05:39:38;;;;;;;9.35;2.70;;;;;;;;;;4897047;28;99569;-70
2021/12/08 05:42:09;;;;;;;7.55;3.03;;;;;;;;;;4896036;28;100081;-70
2021/12/08 05:44:36;;;;;;;7.30;2.50;;;;;;;;;;4897133;28;98356;-70
2021/12/08 05:47:05;;;;;;;11.52;2.60;;;;;;;;;;4896634;28;99438;-69
2021/12/08 05:49:31;;;;;;;4.97;2.47;;;;;;;;;;4896417;28;100862;-69
2021/12/08 05:51:58;;;;;;;7.00;2.92;;;;;;;;;;4897344;28;97738;-69
2021/12/08 05:54:29;;;;;;;10.07;3.42;;;;;;;;;;4899068;28;98957;-70
2021/12/08 05:56:56;;;;;;;9.35;2.28;;;;;;;;;;4896836;28;99299;-70
2021/12/08 05:59:23;;;;;;;10.98;2.45;;;;;;;;;;4896341;28;99216;-70
2021/12/08 06:02:01;;;;;;;7.32;2.60;;;;;;;;;;4896394;28;100166;-70
2021/12/08 06:04:29;;;;;;;10.27;2.92;;;;;;;;;;4896800;28;98455;-69
2021/12/08 06:06:57;;;;;;;5.20;2.70;;;;;;;;;;4879196;28;102604;-71
2021/12/08 06:09:25;;;;;;;6.50;2.97;;;;;;;;;;4896433;28;99601;-71
2021/12/08 06:11:53;;;;;;;5.60;2.90;;;;;;;;;;4896811;28;98500;-71
2021/12/08 06:14:21;;;;;;;10.77;2.90;;;;;;;;;;4899428;28;99602;-70
2021/12/08 06:16:48;;;;;;;6.50;2.15;;;;;;;;;;4896989;28;98622;-70
2021/12/08 06:19:15;;;;;;;7.32;2.33;;;;;;;;;;4896272;28;98678;-71
2021/12/08 06:21:43;;;;;;;6.03;1.83;;;;;;;;;;4895899;28;99830;-70
2021/12/08 06:24:10;;;;;;;7.80;2.03;;;;;;;;;;4896254;28;99292;-70
2021/12/08 06:26:37;;;;;;;8.93;1.73;;;;;;;;;;4896540;28;100333;-70
2021/12/08 06:29:05;;;;;;;7.28;2.05;;;;;;;;;;4896020;28;99674;-70
2021/12/08 06:31:33;;;;;;;5.05;1.77;;;;;;;;;;4896435;28;98491;-70
2021/12/08 06:33:59;;;;;;;8.15;1.88;;;;;;;;;;4895846;28;99294;-70
2021/12/08 06:36:29;;;;;;;9.05;1.98;;;;;;;;;;4899338;28;99256;-70
2021/12/08 06:38:56;;;;;;;7.22;1.98;;;;;;;;;;4896359;28;98765;-70
2021/12/08 06:41:25;;;;;;;10.23;2.20;;;;;;;;;;4896306;28;99022;-70
2021/12/08 06:43:55;;;;;;;9.07;1.70;;;;;;;;;;4896203;28;98376;-70
2021/12/08 06:46:21;;;;;;;7.72;2.15;;;;;;;;;;4896045;28;98911;-70
2021/12/08 06:48:52;;;;;;;8.88;2.17;;;;;;;;;;4894836;28;100390;-70
2021/12/08 06:51:21;;;;;;;7.75;2.05;;;;;;;;;;4896097;28;98498;-70
2021/12/08 06:53:49;;;;;;;6.80;1.90;;;;;;;;;;4896118;28;99340;-70
2021/12/08 06:56:19;;;;;;;8.63;2.00;;;;;;;;;;4895824;28;99601;-70
2021/12/08 06:58:47;;;;;;;9.35;2.25;;;;;;;;;;4882060;28;98561;-70
2021/12/08 07:01:23;;;;;;;10.10;2.13;;;;;;;;;;4895136;28;99800;-70
2021/12/08 07:09:10;;;;;;;10.80;2.22;;;;;;;;;;4895499;28;99537;-70
2021/12/08 07:11:36;;;;;;;10.25;1.77;;;;;;;;;;4895436;28;100261;-70
2021/12/08 07:14:03;;;;;;;11.68;2.03;;;;;;;;;;4895039;28;99416;-70
2021/12/08 07:16:32;;;;;;;9.55;2.55;;;;;;;;;;4895360;28;99845;-70
2021/12/08 07:19:08;;;;;;;7.95;2.47;;;;;;;;;;4895471;28;98455;-70
2021/12/08 07:21:36;;;;;;;7.22;2.53;;;;;;;;;;4898546;28;99402;-70
2021/12/08 07:24:05;;;;;;;10.73;2.55;;;;;;;;;;4895377;28;98415;-71
2021/12/08 07:26:33;;;;;;;9.88;2.30;;;;;;;;;;4895505;28;99062;-70
2021/12/08 07:28:59;;;;;;;6.30;2.10;;;;;;;;;;4894329;28;99212;-70
2021/12/08 07:31:30;;;;;;;8.13;2.75;;;;;;;;;;4896183;28;97713;-70
2021/12/08 07:34:03;;;;;;;9.50;2.60;;;;;;;;;;4878289;28;99688;-70
2021/12/08 07:36:30;;;;;;;8.77;1.95;;;;;;;;;;4894117;28;99853;-70
2021/12/08 07:38:59;;;;;;;12.73;2.35;;;;;;;;;;4894981;28;99109;-70
2021/12/08 07:41:30;;;;;;;6.43;2.40;;;;;;;;;;4895199;28;100429;-70
2021/12/08 07:43:58;;;;;;;9.93;2.73;;;;;;;;;;4898000;28;100112;-72
2021/12/08 07:46:33;;;;;;;10.48;2.65;;;;;;;;;;4894986;28;99489;-70
2021/12/08 07:49:02;;;;;;;9.63;2.70;;;;;;;;;;4894638;28;99724;-71
2021/12/08 07:51:37;;;;;;;10.25;2.67;;;;;;;;;;4895433;28;98334;-72
2021/12/08 07:54:04;;;;;;;9.93;1.98;;;;;;;;;;4894935;28;100733;-71
2021/12/08 07:56:32;;;;;;;7.97;2.30;;;;;;;;;;4878786;28;99022;-70
2021/12/08 07:59:02;;;;;;;13.10;2.40;;;;;;;;;;4895259;28;98379;-72
2021/12/08 08:01:33;;;;;;;10.93;2.60;;;;;;;;;;4894874;28;99528;-70
2021/12/08 08:04:00;;;;;;;13.40;2.67;;;;;;;;;;4894398;28;100183;-71
2021/12/08 08:06:29;;;;;;;7.22;2.00;;;;;;;;;;4898053;28;98869;-70
2021/12/08 08:08:55;;;;;;;7.28;2.13;;;;;;;;;;4894557;28;99634;-71
2021/12/08 08:11:23;;;;;;;9.65;2.85;;;;;;;;;;4895067;28;98462;-69
2021/12/08 08:13:50;;;;;;;9.13;2.40;;;;;;;;;;4878184;28;99591;-70
2021/12/08 08:16:19;;;;;;;6.40;2.00;;;;;;;;;;4894558;28;98831;-70
2021/12/08 08:18:51;;;;;;;7.07;2.05;;;;;;;;;;4894801;28;98461;-70
2021/12/08 08:21:20;;;;;;;10.60;2.55;;;;;;;;;;4895337;28;99673;-71
2021/12/08 08:23:46;;;;;;;12.57;3.08;;;;;;;;;;4894562;28;99382;-70
2021/12/08 08:26:13;;;;;;;13.18;2.50;;;;;;;;;;4898015;28;98597;-69
2021/12/08 08:28:41;;;;;;;10.02;2.50;;;;;;;;;;4893682;28;100459;-71
2021/12/08 08:31:10;;;;;;;8.30;2.05;;;;;;;;;;4894746;28;98287;-71
2021/12/08 08:33:39;;;;;;;11.43;2.38;;;;;;;;;;4894652;28;100170;-72
2021/12/08 08:36:10;;;;;;;7.57;2.50;;;;;;;;;;4894317;28;99581;-71
2021/12/08 08:38:39;;;;;;;6.25;2.20;;;;;;;;;;4894875;28;98345;-70
2021/12/08 08:41:10;;;;;;;11.77;2.70;;;;;;;;;;4897669;28;99482;-70
2021/12/08 08:43:36;;;;;;;13.75;2.63;;;;;;;;;;4880768;28;99626;-70
2021/12/08 08:46:08;;;;;;;12.30;2.95;;;;;;;;;;4898264;28;97720;-70
2021/12/08 08:48:43;;;;;;;8.67;1.90;;;;;;;;;;4900663;28;98676;-71
2021/12/08 08:51:13;;;;;;;10.00;2.28;;;;;;;;;;4897686;28;98473;-71
2021/12/08 08:53:41;;;;;;;7.22;2.15;;;;;;;;;;4897325;28;99088;-72
2021/12/08 08:56:14;;;;;;;7.75;2.80;;;;;;;;;;4897319;28;99108;-72
2021/12/08 08:58:46;;;;;;;5.82;1.80;;;;;;;;;;4897666;28;98477;-76
2021/12/08 09:01:16;;;;;;;14.20;2.75;;;;;;;;;;4897505;28;99420;-70
2021/12/08 09:03:46;;;;;;;8.73;2.40;;;;;;;;;;4897086;28;99903;-71
2021/12/08 09:06:15;;;;;;;7.40;2.30;;;;;;;;;;4897130;28;98598;-70
2021/12/08 09:08:42;;;;;;;9.35;2.55;;;;;;;;;;4897721;28;99295;-71
2021/12/08 09:11:15;;;;;;;8.02;1.60;;;;;;;;;;4900766;28;99026;-71
2021/12/08 09:13:44;;;;;;;12.10;1.77;;;;;;;;;;4897270;28;99141;-70
2021/12/08 09:16:15;;;;;;;8.93;1.90;;;;;;;;;;4880033;28;100016;-71
2021/12/08 09:18:50;;;;;;;7.80;2.03;;;;;;;;;;4896411;28;99275;-71
2021/12/08 09:21:20;;;;;;;6.70;1.60;;;;;;;;;;4897233;28;100227;-70
2021/12/08 09:23:57;;;;;;;9.48;1.70;;;;;;;;;;4896862;28;99502;-70
2021/12/08 09:26:24;;;;;;;8.90;1.88;;;;;;;;;;4895949;28;98451;-71
2021/12/08 09:28:54;;;;;;;12.52;2.20;;;;;;;;;;4896780;28;99604;-70
2021/12/08 09:31:24;;;;;;;8.00;1.70;;;;;;;;;;4896716;28;99737;-71
2021/12/08 09:34:13;;;;;;;8.77;2.00;;;;;;;;;;4900394;28;98655;-71
2021/12/08 09:36:46;;;;;;;10.30;1.70;;;;;;;;;;4896198;28;99046;-71
2021/12/08 09:39:20;;;;;;;8.88;1.90;;;;;;;;;;4896864;28;98526;-71
2021/12/08 09:41:50;;;;;;;11.07;2.03;;;;;;;;;;4864124;28;101649;-71
2021/12/08 09:44:22;;;;;;;11.27;2.28;;;;;;;;;;4896285;28;100019;-70
2021/12/08 09:46:51;;;;;;;11.52;2.13;;;;;;;;;;4896912;28;99057;-71
2021/12/08 09:49:25;;;;;;;9.43;2.00;;;;;;;;;;4896758;28;99304;-70
2021/12/08 09:51:51;;;;;;;7.32;2.00;;;;;;;;;;4895127;28;99368;-70
2021/12/08 09:54:18;;;;;;;9.02;1.95;;;;;;;;;;4897127;28;98391;-71
2021/12/08 09:56:46;;;;;;;5.53;1.95;;;;;;;;;;4899578;28;99367;-71
2021/12/08 09:59:13;;;;;;;8.10;2.45;;;;;;;;;;4896320;28;98621;-71
2021/12/08 10:01:41;;;;;;;10.32;2.10;;;;;;;;;;4896913;28;99750;-70
2021/12/08 10:04:09;;;;;;;8.15;1.90;;;;;;;;;;4896035;28;100038;-70
2021/12/08 10:06:37;;;;;;;12.82;2.60;;;;;;;;;;4896190;28;98533;-70
2021/12/08 10:09:03;;;;;;;4.78;2.63;;;;;;;;;;4896288;28;99861;-70
2021/12/08 10:11:31;;;;;;;6.85;2.38;;;;;;;;;;4895996;28;99274;-70
2021/12/08 10:13:58;;;;;;;9.63;2.38;;;;;;;;;;4896166;28;99519;-70
2021/12/08 10:16:26;;;;;;;10.40;2.40;;;;;;;;;;4882367;28;99439;-70
2021/12/08 10:18:53;;;;;;;6.18;1.95;;;;;;;;;;4896311;28;98470;-70
2021/12/08 10:21:20;;;;;;;4.35;1.50;;;;;;;;;;4879222;28;101153;-70
2021/12/08 10:23:48;;;;;;;7.65;1.90;;;;;;;;;;4896028;28;99735;-70
2021/12/08 10:26:19;;;;;;;6.30;1.80;;;;;;;;;;4896710;28;97697;-69
2021/12/08 10:28:45;;;;;;;5.97;2.80;;;;;;;;;;4896210;28;98278;-69
2021/12/08 10:31:15;;;;;;;4.53;2.25;;;;;;;;;;4895979;28;99290;-69
2021/12/08 10:37:03;;;;;;;8.43;2.20;;;;;;;;;;4896405;28;100469;-69
2021/12/08 10:39:12;;;;;;;6.22;2.28;;;;;;;;;;4893655;28;100185;-69
2021/12/08 10:41:43;;;;;;;6.25;2.17;;;;;;;;;;4896234;28;99387;-68
2021/12/08 10:44:41;;;;;;;7.68;2.20;;;;;;;;;;4878423;28;100808;-69
2021/12/08 10:47:08;;;;;;;3.05;2.00;;;;;;;;;;4879289;28;98576;-70
2021/12/08 10:54:51;;;;;;;6.25;2.33;;;;;;;;;;4895888;28;98359;-70
2021/12/08 10:57:37;;;;;;;5.60;1.83;;;;;;;;;;4895942;28;99456;-69
2021/12/08 11:00:08;;;;;;;7.20;2.35;;;;;;;;;;4894943;28;99284;-70
2021/12/08 11:02:38;;;;;;;7.45;2.65;;;;;;;;;;4898880;28;98436;-70
2021/12/08 11:05:05;;;;;;;8.43;2.60;;;;;;;;;;4895405;28;99582;-70
2021/12/08 11:07:33;;;;;;;7.85;2.40;;;;;;;;;;4895790;28;98502;-70
2021/12/08 11:10:15;;;;;;;10.23;2.42;;;;;;;;;;4879076;28;99242;-70
2021/12/08 11:12:42;;;;;;;6.38;2.20;;;;;;;;;;4895245;28;99993;-74
2021/12/08 11:15:20;;;;;;;3.83;2.20;;;;;;;;;;4895261;28;98431;-70
2021/12/08 11:17:47;;;;;;;4.18;2.10;;;;;;;;;;4896202;28;99445;-73
2021/12/08 11:20:15;;;;;;;4.45;1.90;;;;;;;;;;4895175;28;100052;-74
2021/12/08 11:22:44;;;;;;;4.63;2.30;;;;;;;;;;4895734;28;98374;-71
2021/12/08 11:25:21;;;;;;;8.30;2.00;;;;;;;;;;4898045;28;99665;-72
2021/12/08 11:27:49;;;;;;;7.65;2.10;;;;;;;;;;4895185;28;99448;-72
2021/12/08 11:30:17;;;;;;;4.00;2.10;;;;;;;;;;4895611;28;99376;-71
2021/12/08 11:32:43;;;;;;;5.13;2.25;;;;;;;;;;4895245;28;100099;-73
2021/12/08 11:35:19;;;;;;;10.40;2.00;;;;;;;;;;4895753;28;98364;-71
2021/12/08 11:37:56;;;;;;;6.70;1.77;;;;;;;;;;4894387;28;99635;-71
2021/12/08 11:40:23;;;;;;;5.32;2.10;;;;;;;;;;4894539;28;101365;-70
2021/12/08 11:42:50;;;;;;;5.20;2.17;;;;;;;;;;4896360;28;97626;-73
2021/12/08 11:45:18;;;;;;;4.75;2.30;;;;;;;;;;4895536;28;98407;-71
2021/12/08 11:47:44;;;;;;;6.97;2.40;;;;;;;;;;4898783;28;99741;-73
2021/12/08 11:50:15;;;;;;;5.05;2.20;;;;;;;;;;4895093;28;99338;-71
2021/12/08 11:52:42;;;;;;;7.37;2.67;;;;;;;;;;4894828;28;99323;-71
2021/12/08 11:55:14;;;;;;;6.70;2.38;;;;;;;;;;4878188;28;99440;-72
2021/12/08 11:57:42;;;;;;;;;;;;;;;;;;4895538;28;99463;-70
2021/12/08 12:00:14;;;;;;;2.42;2.22;;;;;;;;;;4895648;28;99436;-70
2021/12/08 12:02:44;;;;;;;5.93;2.20;;;;;;;;;;4895096;28;98426;-70
2021/12/08 12:05:13;;;;;;;6.93;2.63;;;;;;;;;;4895254;28;98770;-72
2021/12/08 12:07:39;;;;;;;7.85;2.60;;;;;;;;;;4877648;28;102043;-71
2021/12/08 12:10:07;;;;;;;3.70;2.05;;;;;;;;;;4898146;28;99060;-71
2021/12/08 12:12:37;;;;;;;4.80;1.98;;;;;;;;;;4894624;28;99075;-72
2021/12/08 12:15:07;;;;;;;6.18;2.50;;;;;;;;;;4896257;28;99172;-72
2021/12/08 12:17:33;;;;;;;3.40;2.50;;;;;;;;;;4898120;28;99989;-71
2021/12/08 12:20:02;;;;;;;3.72;2.30;;;;;;;;;;4897644;28;99011;-71
2021/12/08 12:22:41;;;;;;;5.38;2.25;;;;;;;;;;4898229;28;98986;-72
2021/12/08 12:25:26;;;;;;;7.90;2.33;;;;;;;;;;4898314;28;99615;-72
2021/12/08 12:28:11;;;;;;;7.03;3.00;;;;;;;;;;4897741;28;99666;-72
2021/12/08 12:30:48;;;;;;;4.95;2.35;;;;;;;;;;4901112;28;98493;-72
2021/12/08 12:33:19;;;;;;;5.47;2.40;;;;;;;;;;4898366;28;99017;-71
2021/12/08 12:35:48;;;;;;;3.38;2.40;;;;;;;;;;4898165;28;98378;-70
2021/12/08 12:38:15;;;;;;;3.97;2.00;;;;;;;;;;4897949;28;99043;-71
2021/12/08 12:40:47;;;;;;;7.88;2.63;;;;;;;;;;4896884;28;100417;-71
2021/12/08 12:43:27;;;;;;;5.68;2.47;;;;;;;;;;4897966;28;98584;-72
2021/12/08 12:46:04;;;;;;;5.80;2.42;;;;;;;;;;4898156;28;99308;-70
2021/12/08 12:48:31;;;;;;;3.05;2.30;;;;;;;;;;4897461;28;98985;-71
2021/12/08 12:50:58;;;;;;;4.18;2.63;;;;;;;;;;4897861;28;99511;-70
2021/12/08 12:53:37;;;;;;;4.20;2.33;;;;;;;;;;4883442;28;99003;-71
2021/12/08 12:56:06;;;;;;;3.30;2.60;;;;;;;;;;4897712;28;98442;-71
2021/12/08 12:58:43;;;;;;;4.72;2.88;;;;;;;;;;4898288;28;98397;-71
2021/12/08 13:01:14;;;;;;;5.18;2.45;;;;;;;;;;4897463;28;99682;-70
2021/12/08 13:03:43;;;;;;;5.38;2.47;;;;;;;;;;4897432;28;98300;-71
2021/12/08 13:06:13;;;;;;;5.25;2.35;;;;;;;;;;4896849;28;100156;-70
2021/12/08 13:08:47;;;;;;;6.20;2.35;;;;;;;;;;4897123;28;99212;-71
2021/12/08 13:11:25;;;;;;;6.35;2.50;;;;;;;;;;4897656;28;98471;-71
2021/12/08 13:13:56;;;;;;;2.85;2.20;;;;;;;;;;4897361;28;99670;-70
2021/12/08 13:16:26;;;;;;;12.38;2.60;;;;;;;;;;4900137;28;99301;-71
2021/12/08 13:18:57;;;;;;;8.70;2.22;;;;;;;;;;4897501;28;100044;-71
2021/12/08 13:21:37;;;;;;;8.80;2.30;;;;;;;;;;4879996;28;100330;-71
2021/12/08 13:24:03;;;;;;;7.35;2.33;;;;;;;;;;4897836;28;97831;-71
2021/12/08 13:26:51;;;;;;;6.65;2.20;;;;;;;;;;4896221;28;98534;-71
2021/12/08 13:29:23;;;;;;;4.68;2.40;;;;;;;;;;4895983;28;103242;-72
2021/12/08 13:31:59;;;;;;;7.60;2.55;;;;;;;;;;4896766;28;99103;-70
2021/12/08 13:34:31;;;;;;;7.57;2.53;;;;;;;;;;4880399;28;100304;-70
2021/12/08 13:37:11;;;;;;;5.30;2.30;;;;;;;;;;4896711;28;99777;-70
2021/12/08 13:39:41;;;;;;;3.80;2.63;;;;;;;;;;4883179;28;98436;-70
2021/12/08 13:42:30;;;;;;;10.80;2.55;;;;;;;;;;4896650;28;98710;-72
2021/12/08 13:45:02;;;;;;;5.40;2.58;;;;;;;;;;4880314;28;98220;-72
2021/12/08 13:47:31;;;;;;;10.50;2.58;;;;;;;;;;4896916;28;99661;-71
2021/12/08 13:50:06;;;;;;;5.32;2.55;;;;;;;;;;4896731;28;98805;-72
2021/12/08 13:52:34;;;;;;;7.78;2.90;;;;;;;;;;4896806;28;98363;-73
2021/12/08 13:55:09;;;;;;;6.75;2.97;;;;;;;;;;4896955;28;99641;-73
2021/12/08 13:57:35;;;;;;;5.65;3.05;;;;;;;;;;4895959;28;100386;-72
2021/12/08 14:00:08;;;;;;;6.50;2.90;;;;;;;;;;4896588;28;98466;-73
2021/12/08 14:02:43;;;;;;;7.90;3.88;;;;;;;;;;4899548;28;98782;-73
2021/12/08 14:05:10;;;;;;;8.63;3.65;;;;;;;;;;4896737;28;98291;-72
2021/12/08 14:07:38;;;;;;;4.88;2.85;;;;;;;;;;4896574;28;99455;-72
2021/12/08 14:10:06;;;;;;;6.65;2.85;;;;;;;;;;4886137;28;99743;-71
2021/12/08 14:12:40;;;;;;;8.43;3.20;;;;;;;;;;4881166;28;98429;-72
2021/12/08 14:15:07;;;;;;;5.07;3.65;;;;;;;;;;4866254;28;99281;-73
2021/12/08 14:17:33;;;;;;;5.78;3.17;;;;;;;;;;4860336;28;99652;-74
2021/12/08 14:19:59;;;;;;;7.03;3.72;;;;;;;;;;4866317;28;99533;-72
2021/12/08 14:22:36;;;;;;;9.00;4.18;;;;;;;;;;4875307;28;99559;-73
2021/12/08 14:25:03;;;;;;;3.80;3.50;;;;;;;;;;4869073;28;99676;-71
2021/12/08 14:27:30;;;;;;;6.55;3.45;;;;;;;;;;4867897;28;98992;-70
2021/12/08 14:29:57;;;;;;;6.35;3.67;;;;;;;;;;4866923;28;99834;-72
2021/12/08 14:32:24;;;;;;;6.38;3.85;;;;;;;;;;4857237;28;98483;-72
2021/12/08 14:34:50;;;;;;;5.97;4.07;;;;;;;;;;4860144;28;99361;-72
2021/12/08 14:37:16;;;;;;;6.63;3.13;;;;;;;;;;4876344;28;99343;-73
2021/12/08 14:39:48;;;;;;;4.50;3.00;;;;;;;;;;4877265;28;97734;-71
2021/12/08 14:42:16;;;;;;;5.97;3.35;;;;;;;;;;4877104;28;98683;-71
2021/12/08 14:44:49;;;;;;;10.20;2.90;;;;;;;;;;4879609;28;100189;-73
2021/12/08 14:47:19;;;;;;;4.72;2.92;;;;;;;;;;4876611;28;99664;-72
2021/12/08 14:49:47;;;;;;;4.07;2.70;;;;;;;;;;4876365;28;99714;-73
2021/12/08 14:52:14;;;;;;;8.98;2.60;;;;;;;;;;4876357;28;98817;-73
2021/12/08 14:54:43;;;;;;;4.55;2.80;;;;;;;;;;4876577;28;98922;-73
2021/12/08 14:57:13;;;;;;;10.93;2.90;;;;;;;;;;4876444;28;99847;-72
2021/12/08 14:59:44;;;;;;;12.18;2.90;;;;;;;;;;4876847;28;98466;-73
2021/12/08 15:02:11;;;;;;;6.43;2.90;;;;;;;;;;4876871;28;99619;-72
2021/12/08 15:04:38;;;;;;;6.55;2.80;;;;;;;;;;4876753;28;98356;-74
2021/12/08 15:07:05;;;;;;;5.43;2.80;;;;;;;;;;4879655;28;98510;-72
2021/12/08 15:09:33;;;;;;;5.13;2.53;;;;;;;;;;4876303;28;99759;-72
2021/12/08 15:12:01;;;;;;;6.00;3.10;;;;;;;;;;4859266;28;99214;-72
2021/12/08 15:14:28;;;;;;;8.27;3.13;;;;;;;;;;4883377;28;99524;-72
2021/12/08 15:16:56;;;;;;;3.65;2.20;;;;;;;;;;4895352;28;99091;-71
2021/12/08 15:19:22;;;;;;;3.33;2.45;;;;;;;;;;4895267;28;98872;-74
2021/12/08 15:21:52;;;;;;;7.55;2.60;;;;;;;;;;4895678;28;99979;-72
2021/12/08 15:24:22;;;;;;;7.72;2.55;;;;;;;;;;4895228;28;99845;-72
2021/12/08 15:26:49;;;;;;;2.75;2.20;;;;;;;;;;4895659;28;99094;-72
2021/12/08 15:29:17;;;;;;;6.15;2.78;;;;;;;;;;4899024;28;99416;-75
2021/12/08 15:31:47;;;;;;;3.65;2.50;;;;;;;;;;4895324;28;98343;-74
2021/12/08 15:34:18;;;;;;;8.00;3.08;;;;;;;;;;4895278;28;99388;-71
2021/12/08 15:37:05;;;;;;;4.80;3.20;;;;;;;;;;4894466;28;100334;-70
2021/12/08 15:39:33;;;;;;;9.02;3.28;;;;;;;;;;4895019;28;98449;-72
2021/12/08 15:42:00;;;;;;;5.85;3.13;;;;;;;;;;4895274;28;99425;-74
2021/12/08 15:44:27;;;;;;;5.47;3.10;;;;;;;;;;4894166;28;99817;-76